sensor_id;sensor_type;location;lat;lon;timestamp;temperature;humidity
31727;DHT22;18308;53.072;8.820;2022-07-06T00:01:41;15.10;99.90
31727;DHT22;18308;53.072;8.820;2022-07-06T00:04:07;15.10;99.90
31727;DHT22;18308;53.072;8.820;2022-07-06T00:06:32;15.10;99.90
31727;DHT22;18308;53.072;8.820;2022-07-06T00:08:58;15.10;99.90
31727;DHT22;18308;53.072;8.820;2022-07-06T00:11:24;15.10;99.90
31727;DHT22;18308;53.072;8.820;2022-07-06T00:13:50;15.10;99.90
31727;DHT22;18308;53.072;8.820;2022-07-06T00:16:16;15.20;99.90
31727;DHT22;18308;53.072;8.820;2022-07-06T00:18:41;15.10;99.90
31727;DHT22;18308;53.072;8.820;2022-07-06T00:21:07;15.10;99.90
31727;DHT22;18308;53.072;8.820;2022-07-06T00:23:33;15.10;99.90
31727;DHT22;18308;53.072;8.820;2022-07-06T00:25:58;15.10;99.90
31727;DHT22;18308;53.072;8.820;2022-07-06T00:28:24;15.10;99.90
31727;DHT22;18308;53.072;8.820;2022-07-06T00:30:50;15.10;99.90
31727;DHT22;18308;53.072;8.820;2022-07-06T00:33:16;15.10;99.90
31727;DHT22;18308;53.072;8.820;2022-07-06T00:35:42;15.00;99.90
31727;DHT22;18308;53.072;8.820;2022-07-06T00:38:07;15.10;99.90
31727;DHT22;18308;53.072;8.820;2022-07-06T00:40:33;15.10;99.90
31727;DHT22;18308;53.072;8.820;2022-07-06T00:42:59;15.10;99.90
31727;DHT22;18308;53.072;8.820;2022-07-06T00:45:24;15.10;99.90
31727;DHT22;18308;53.072;8.820;2022-07-06T00:47:50;15.20;99.90
31727;DHT22;18308;53.072;8.820;2022-07-06T00:50:16;15.10;99.90
31727;DHT22;18308;53.072;8.820;2022-07-06T00:52:52;15.10;99.90
31727;DHT22;18308;53.072;8.820;2022-07-06T00:55:19;15.10;99.90
31727;DHT22;18308;53.072;8.820;2022-07-06T00:57:45;15.10;99.90
31727;DHT22;18308;53.072;8.820;2022-07-06T01:00:12;15.20;99.90
31727;DHT22;18308;53.072;8.820;2022-07-06T01:02:38;15.10;99.90
31727;DHT22;18308;53.072;8.820;2022-07-06T01:05:04;15.10;99.90
31727;DHT22;18308;53.072;8.820;2022-07-06T01:07:30;15.10;99.90
31727;DHT22;18308;53.072;8.820;2022-07-06T01:09:56;15.00;99.90
31727;DHT22;18308;53.072;8.820;2022-07-06T01:12:21;15.00;99.90
31727;DHT22;18308;53.072;8.820;2022-07-06T01:14:48;15.00;99.90
31727;DHT22;18308;53.072;8.820;2022-07-06T01:17:13;15.00;99.90
31727;DHT22;18308;53.072;8.820;2022-07-06T01:19:39;15.00;99.90
31727;DHT22;18308;53.072;8.820;2022-07-06T01:22:05;15.10;99.90
31727;DHT22;18308;53.072;8.820;2022-07-06T01:24:30;15.10;99.90
31727;DHT22;18308;53.072;8.820;2022-07-06T01:26:56;15.10;99.90
31727;DHT22;18308;53.072;8.820;2022-07-06T01:29:22;15.10;99.90
31727;DHT22;18308;53.072;8.820;2022-07-06T01:31:48;15.10;99.90
31727;DHT22;18308;53.072;8.820;2022-07-06T01:34:15;15.10;99.90
31727;DHT22;18308;53.072;8.820;2022-07-06T01:36:41;15.10;99.90
31727;DHT22;18308;53.072;8.820;2022-07-06T01:39:07;15.10;99.90
31727;DHT22;18308;53.072;8.820;2022-07-06T01:41:33;15.10;99.90
31727;DHT22;18308;53.072;8.820;2022-07-06T01:43:58;15.10;99.90
31727;DHT22;18308;53.072;8.820;2022-07-06T01:46:24;15.10;99.90
31727;DHT22;18308;53.072;8.820;2022-07-06T01:48:49;15.10;99.90
31727;DHT22;18308;53.072;8.820;2022-07-06T01:51:15;15.10;99.90
31727;DHT22;18308;53.072;8.820;2022-07-06T01:53:41;15.10;99.90
31727;DHT22;18308;53.072;8.820;2022-07-06T01:56:06;15.10;99.90
31727;DHT22;18308;53.072;8.820;2022-07-06T01:58:32;15.20;99.90
31727;DHT22;18308;53.072;8.820;2022-07-06T02:00:58;15.10;99.90
31727;DHT22;18308;53.072;8.820;2022-07-06T02:03:23;15.10;99.90
31727;DHT22;18308;53.072;8.820;2022-07-06T02:05:49;15.00;99.90
31727;DHT22;18308;53.072;8.820;2022-07-06T02:08:14;15.00;99.90
31727;DHT22;18308;53.072;8.820;2022-07-06T02:10:39;15.00;99.90
31727;DHT22;18308;53.072;8.820;2022-07-06T02:13:05;14.90;99.90
31727;DHT22;18308;53.072;8.820;2022-07-06T02:15:31;14.90;99.90
31727;DHT22;18308;53.072;8.820;2022-07-06T02:17:56;14.90;99.90
31727;DHT22;18308;53.072;8.820;2022-07-06T02:20:22;14.90;99.90
31727;DHT22;18308;53.072;8.820;2022-07-06T02:22:47;14.90;99.90
31727;DHT22;18308;53.072;8.820;2022-07-06T02:25:13;14.90;99.90
31727;DHT22;18308;53.072;8.820;2022-07-06T02:27:38;14.90;99.90
31727;DHT22;18308;53.072;8.820;2022-07-06T02:30:04;14.90;99.90
31727;DHT22;18308;53.072;8.820;2022-07-06T02:32:30;14.90;99.90
31727;DHT22;18308;53.072;8.820;2022-07-06T02:34:56;15.00;99.90
31727;DHT22;18308;53.072;8.820;2022-07-06T02:37:21;14.90;99.90
31727;DHT22;18308;53.072;8.820;2022-07-06T02:39:47;14.90;99.90
31727;DHT22;18308;53.072;8.820;2022-07-06T02:42:12;14.90;99.90
31727;DHT22;18308;53.072;8.820;2022-07-06T02:44:38;14.90;99.90
31727;DHT22;18308;53.072;8.820;2022-07-06T02:47:04;15.00;99.90
31727;DHT22;18308;53.072;8.820;2022-07-06T02:49:29;15.00;99.90
31727;DHT22;18308;53.072;8.820;2022-07-06T02:51:55;15.00;99.90
31727;DHT22;18308;53.072;8.820;2022-07-06T02:54:20;15.00;99.90
31727;DHT22;18308;53.072;8.820;2022-07-06T02:56:46;14.90;99.90
31727;DHT22;18308;53.072;8.820;2022-07-06T02:59:16;14.90;99.90
31727;DHT22;18308;53.072;8.820;2022-07-06T03:01:42;14.90;99.90
31727;DHT22;18308;53.072;8.820;2022-07-06T03:04:07;14.90;99.90
31727;DHT22;18308;53.072;8.820;2022-07-06T03:06:33;14.80;99.90
31727;DHT22;18308;53.072;8.820;2022-07-06T03:08:58;14.80;99.90
31727;DHT22;18308;53.072;8.820;2022-07-06T03:11:24;14.90;99.90
31727;DHT22;18308;53.072;8.820;2022-07-06T03:13:49;14.80;99.90
31727;DHT22;18308;53.072;8.820;2022-07-06T03:16:15;14.80;99.90
31727;DHT22;18308;53.072;8.820;2022-07-06T03:18:40;14.80;99.90
31727;DHT22;18308;53.072;8.820;2022-07-06T03:21:06;14.80;99.90
31727;DHT22;18308;53.072;8.820;2022-07-06T03:23:31;14.80;99.90
31727;DHT22;18308;53.072;8.820;2022-07-06T03:25:57;14.80;99.90
31727;DHT22;18308;53.072;8.820;2022-07-06T03:28:22;14.80;99.90
31727;DHT22;18308;53.072;8.820;2022-07-06T03:30:48;14.80;99.90
31727;DHT22;18308;53.072;8.820;2022-07-06T03:33:13;14.80;99.90
31727;DHT22;18308;53.072;8.820;2022-07-06T03:35:39;14.80;99.90
31727;DHT22;18308;53.072;8.820;2022-07-06T03:38:04;14.80;99.90
31727;DHT22;18308;53.072;8.820;2022-07-06T03:40:30;14.80;99.90
31727;DHT22;18308;53.072;8.820;2022-07-06T03:42:55;14.90;99.90
31727;DHT22;18308;53.072;8.820;2022-07-06T03:45:21;14.90;99.90
31727;DHT22;18308;53.072;8.820;2022-07-06T03:47:46;14.90;99.90
31727;DHT22;18308;53.072;8.820;2022-07-06T03:50:12;14.90;99.90
31727;DHT22;18308;53.072;8.820;2022-07-06T03:52:37;14.90;99.90
31727;DHT22;18308;53.072;8.820;2022-07-06T03:55:14;14.90;99.90
31727;DHT22;18308;53.072;8.820;2022-07-06T03:57:39;14.90;99.90
31727;DHT22;18308;53.072;8.820;2022-07-06T04:00:06;14.90;99.90
31727;DHT22;18308;53.072;8.820;2022-07-06T04:02:32;14.90;99.90
31727;DHT22;18308;53.072;8.820;2022-07-06T04:04:58;14.90;99.90
31727;DHT22;18308;53.072;8.820;2022-07-06T04:07:24;14.90;99.90
31727;DHT22;18308;53.072;8.820;2022-07-06T04:09:50;14.90;99.90
31727;DHT22;18308;53.072;8.820;2022-07-06T04:12:15;14.90;99.90
31727;DHT22;18308;53.072;8.820;2022-07-06T04:14:41;14.90;99.90
31727;DHT22;18308;53.072;8.820;2022-07-06T04:17:06;14.90;99.90
31727;DHT22;18308;53.072;8.820;2022-07-06T04:19:50;14.90;99.90
31727;DHT22;18308;53.072;8.820;2022-07-06T04:22:16;14.90;99.90
31727;DHT22;18308;53.072;8.820;2022-07-06T04:24:42;14.90;99.90
31727;DHT22;18308;53.072;8.820;2022-07-06T04:27:07;14.90;99.90
31727;DHT22;18308;53.072;8.820;2022-07-06T04:29:33;14.90;99.90
31727;DHT22;18308;53.072;8.820;2022-07-06T04:31:58;15.00;99.90
31727;DHT22;18308;53.072;8.820;2022-07-06T04:34:24;15.00;99.90
31727;DHT22;18308;53.072;8.820;2022-07-06T04:36:49;15.00;99.90
31727;DHT22;18308;53.072;8.820;2022-07-06T04:39:15;15.10;99.90
31727;DHT22;18308;53.072;8.820;2022-07-06T04:41:40;15.10;99.90
31727;DHT22;18308;53.072;8.820;2022-07-06T04:44:06;15.10;99.90
31727;DHT22;18308;53.072;8.820;2022-07-06T04:46:31;15.10;99.90
31727;DHT22;18308;53.072;8.820;2022-07-06T04:48:57;15.10;99.90
31727;DHT22;18308;53.072;8.820;2022-07-06T04:51:22;15.20;99.90
31727;DHT22;18308;53.072;8.820;2022-07-06T04:53:48;15.10;99.90
31727;DHT22;18308;53.072;8.820;2022-07-06T04:56:13;15.20;99.90
31727;DHT22;18308;53.072;8.820;2022-07-06T04:58:39;15.20;99.90
31727;DHT22;18308;53.072;8.820;2022-07-06T05:01:04;15.20;99.90
31727;DHT22;18308;53.072;8.820;2022-07-06T05:03:30;15.20;99.90
31727;DHT22;18308;53.072;8.820;2022-07-06T05:05:55;15.20;99.90
31727;DHT22;18308;53.072;8.820;2022-07-06T05:08:21;15.30;99.90
31727;DHT22;18308;53.072;8.820;2022-07-06T05:10:47;15.30;99.90
31727;DHT22;18308;53.072;8.820;2022-07-06T05:13:13;15.40;99.90
31727;DHT22;18308;53.072;8.820;2022-07-06T05:15:38;15.40;99.90
31727;DHT22;18308;53.072;8.820;2022-07-06T05:18:04;15.50;99.90
31727;DHT22;18308;53.072;8.820;2022-07-06T05:20:29;15.50;99.90
31727;DHT22;18308;53.072;8.820;2022-07-06T05:22:55;15.60;99.90
31727;DHT22;18308;53.072;8.820;2022-07-06T05:25:20;15.50;99.90
31727;DHT22;18308;53.072;8.820;2022-07-06T05:27:46;15.60;99.90
31727;DHT22;18308;53.072;8.820;2022-07-06T05:30:12;15.70;99.90
31727;DHT22;18308;53.072;8.820;2022-07-06T05:32:37;15.70;99.90
31727;DHT22;18308;53.072;8.820;2022-07-06T05:35:03;15.80;99.90
31727;DHT22;18308;53.072;8.820;2022-07-06T05:37:29;15.80;99.90
31727;DHT22;18308;53.072;8.820;2022-07-06T05:39:54;15.80;99.90
31727;DHT22;18308;53.072;8.820;2022-07-06T05:42:20;15.90;99.90
31727;DHT22;18308;53.072;8.820;2022-07-06T05:44:45;15.90;99.90
31727;DHT22;18308;53.072;8.820;2022-07-06T05:47:11;16.00;99.90
31727;DHT22;18308;53.072;8.820;2022-07-06T05:49:59;16.00;99.90
31727;DHT22;18308;53.072;8.820;2022-07-06T05:52:43;16.10;99.90
31727;DHT22;18308;53.072;8.820;2022-07-06T05:55:11;16.20;99.90
31727;DHT22;18308;53.072;8.820;2022-07-06T05:57:37;16.20;99.90
31727;DHT22;18308;53.072;8.820;2022-07-06T06:00:03;16.30;99.90
31727;DHT22;18308;53.072;8.820;2022-07-06T06:02:42;16.40;99.90
31727;DHT22;18308;53.072;8.820;2022-07-06T06:05:09;16.40;99.90
31727;DHT22;18308;53.072;8.820;2022-07-06T06:07:36;16.40;99.90
31727;DHT22;18308;53.072;8.820;2022-07-06T06:10:05;16.30;99.90
31727;DHT22;18308;53.072;8.820;2022-07-06T06:12:30;16.30;99.90
31727;DHT22;18308;53.072;8.820;2022-07-06T06:14:56;16.20;99.90
31727;DHT22;18308;53.072;8.820;2022-07-06T06:17:21;16.20;99.90
31727;DHT22;18308;53.072;8.820;2022-07-06T06:19:47;16.20;99.90
31727;DHT22;18308;53.072;8.820;2022-07-06T06:22:13;16.20;99.90
31727;DHT22;18308;53.072;8.820;2022-07-06T06:24:38;16.20;99.90
31727;DHT22;18308;53.072;8.820;2022-07-06T06:27:04;16.20;99.90
31727;DHT22;18308;53.072;8.820;2022-07-06T06:29:29;16.20;99.90
31727;DHT22;18308;53.072;8.820;2022-07-06T06:31:55;16.30;99.90
31727;DHT22;18308;53.072;8.820;2022-07-06T06:34:21;16.20;99.90
31727;DHT22;18308;53.072;8.820;2022-07-06T06:36:50;16.30;99.90
31727;DHT22;18308;53.072;8.820;2022-07-06T06:39:16;16.40;99.90
31727;DHT22;18308;53.072;8.820;2022-07-06T06:41:41;16.50;99.90
31727;DHT22;18308;53.072;8.820;2022-07-06T06:44:07;16.50;99.90
31727;DHT22;18308;53.072;8.820;2022-07-06T06:46:35;16.60;99.90
31727;DHT22;18308;53.072;8.820;2022-07-06T06:49:01;16.50;99.90
31727;DHT22;18308;53.072;8.820;2022-07-06T06:51:27;16.40;99.90
31727;DHT22;18308;53.072;8.820;2022-07-06T06:53:52;16.40;99.90
31727;DHT22;18308;53.072;8.820;2022-07-06T06:56:18;16.50;99.90
31727;DHT22;18308;53.072;8.820;2022-07-06T06:58:43;16.70;99.90
31727;DHT22;18308;53.072;8.820;2022-07-06T07:01:09;16.80;99.90
31727;DHT22;18308;53.072;8.820;2022-07-06T07:03:34;16.90;99.90
31727;DHT22;18308;53.072;8.820;2022-07-06T07:06:00;17.00;99.90
31727;DHT22;18308;53.072;8.820;2022-07-06T07:08:25;16.90;99.90
31727;DHT22;18308;53.072;8.820;2022-07-06T07:10:51;17.10;99.90
31727;DHT22;18308;53.072;8.820;2022-07-06T07:13:17;17.20;99.90
31727;DHT22;18308;53.072;8.820;2022-07-06T07:15:42;17.20;99.90
31727;DHT22;18308;53.072;8.820;2022-07-06T07:18:08;17.20;99.90
31727;DHT22;18308;53.072;8.820;2022-07-06T07:20:34;17.30;99.90
31727;DHT22;18308;53.072;8.820;2022-07-06T07:22:59;17.30;99.90
31727;DHT22;18308;53.072;8.820;2022-07-06T07:25:25;17.50;99.90
31727;DHT22;18308;53.072;8.820;2022-07-06T07:27:51;17.50;99.90
31727;DHT22;18308;53.072;8.820;2022-07-06T07:30:17;17.50;99.90
31727;DHT22;18308;53.072;8.820;2022-07-06T07:32:42;17.50;99.90
31727;DHT22;18308;53.072;8.820;2022-07-06T07:35:08;17.60;99.90
31727;DHT22;18308;53.072;8.820;2022-07-06T07:37:34;17.60;99.90
31727;DHT22;18308;53.072;8.820;2022-07-06T07:39:59;17.50;99.90
31727;DHT22;18308;53.072;8.820;2022-07-06T07:42:25;17.40;99.90
31727;DHT22;18308;53.072;8.820;2022-07-06T07:44:51;17.50;99.90
31727;DHT22;18308;53.072;8.820;2022-07-06T07:47:16;17.50;99.90
31727;DHT22;18308;53.072;8.820;2022-07-06T07:49:42;17.40;99.90
31727;DHT22;18308;53.072;8.820;2022-07-06T07:52:08;17.30;99.90
31727;DHT22;18308;53.072;8.820;2022-07-06T07:54:34;17.40;99.90
31727;DHT22;18308;53.072;8.820;2022-07-06T07:56:59;17.30;99.90
31727;DHT22;18308;53.072;8.820;2022-07-06T07:59:25;17.20;99.90
31727;DHT22;18308;53.072;8.820;2022-07-06T08:01:51;17.20;99.90
31727;DHT22;18308;53.072;8.820;2022-07-06T08:04:16;17.30;99.90
31727;DHT22;18308;53.072;8.820;2022-07-06T08:06:42;17.30;99.90
31727;DHT22;18308;53.072;8.820;2022-07-06T08:09:08;17.40;99.90
31727;DHT22;18308;53.072;8.820;2022-07-06T08:11:34;17.50;99.90
31727;DHT22;18308;53.072;8.820;2022-07-06T08:13:59;17.70;99.90
31727;DHT22;18308;53.072;8.820;2022-07-06T08:16:25;17.70;99.90
31727;DHT22;18308;53.072;8.820;2022-07-06T08:18:51;17.80;99.90
31727;DHT22;18308;53.072;8.820;2022-07-06T08:21:16;17.90;99.90
31727;DHT22;18308;53.072;8.820;2022-07-06T08:23:43;18.00;99.90
31727;DHT22;18308;53.072;8.820;2022-07-06T08:26:09;18.10;99.90
31727;DHT22;18308;53.072;8.820;2022-07-06T08:28:34;18.10;99.90
31727;DHT22;18308;53.072;8.820;2022-07-06T08:31:00;18.10;99.90
31727;DHT22;18308;53.072;8.820;2022-07-06T08:33:25;18.10;99.90
31727;DHT22;18308;53.072;8.820;2022-07-06T08:35:51;18.00;99.90
31727;DHT22;18308;53.072;8.820;2022-07-06T08:38:17;18.10;99.90
31727;DHT22;18308;53.072;8.820;2022-07-06T08:40:43;18.30;99.90
31727;DHT22;18308;53.072;8.820;2022-07-06T08:43:09;18.40;99.90
31727;DHT22;18308;53.072;8.820;2022-07-06T08:45:35;18.40;99.90
31727;DHT22;18308;53.072;8.820;2022-07-06T08:48:03;18.40;99.90
31727;DHT22;18308;53.072;8.820;2022-07-06T08:50:29;18.60;99.90
31727;DHT22;18308;53.072;8.820;2022-07-06T08:52:55;18.80;99.90
31727;DHT22;18308;53.072;8.820;2022-07-06T08:55:20;18.90;99.90
31727;DHT22;18308;53.072;8.820;2022-07-06T08:57:46;19.00;99.90
31727;DHT22;18308;53.072;8.820;2022-07-06T09:00:12;19.10;99.90
31727;DHT22;18308;53.072;8.820;2022-07-06T09:02:37;19.30;99.90
31727;DHT22;18308;53.072;8.820;2022-07-06T09:05:04;19.40;99.90
31727;DHT22;18308;53.072;8.820;2022-07-06T09:07:30;19.30;99.90
31727;DHT22;18308;53.072;8.820;2022-07-06T09:09:56;19.30;99.90
31727;DHT22;18308;53.072;8.820;2022-07-06T09:12:22;19.20;99.90
31727;DHT22;18308;53.072;8.820;2022-07-06T09:14:51;19.10;99.90
31727;DHT22;18308;53.072;8.820;2022-07-06T09:17:18;19.20;99.90
31727;DHT22;18308;53.072;8.820;2022-07-06T09:19:45;19.30;99.90
31727;DHT22;18308;53.072;8.820;2022-07-06T09:22:11;19.40;99.90
31727;DHT22;18308;53.072;8.820;2022-07-06T09:24:49;19.60;99.90
31727;DHT22;18308;53.072;8.820;2022-07-06T09:27:16;19.60;99.90
31727;DHT22;18308;53.072;8.820;2022-07-06T09:29:42;19.50;99.90
31727;DHT22;18308;53.072;8.820;2022-07-06T09:32:08;19.50;99.90
31727;DHT22;18308;53.072;8.820;2022-07-06T09:34:43;19.20;99.90
31727;DHT22;18308;53.072;8.820;2022-07-06T09:37:09;19.00;99.90
31727;DHT22;18308;53.072;8.820;2022-07-06T09:39:35;19.00;99.90
31727;DHT22;18308;53.072;8.820;2022-07-06T09:42:01;19.10;99.90
31727;DHT22;18308;53.072;8.820;2022-07-06T09:44:32;19.10;99.90
31727;DHT22;18308;53.072;8.820;2022-07-06T09:46:59;19.10;99.90
31727;DHT22;18308;53.072;8.820;2022-07-06T09:49:25;19.20;99.90
31727;DHT22;18308;53.072;8.820;2022-07-06T09:51:51;19.20;99.90
31727;DHT22;18308;53.072;8.820;2022-07-06T09:54:17;19.10;99.90
31727;DHT22;18308;53.072;8.820;2022-07-06T09:56:44;19.30;99.90
31727;DHT22;18308;53.072;8.820;2022-07-06T09:59:14;19.40;99.90
31727;DHT22;18308;53.072;8.820;2022-07-06T10:01:40;19.50;99.90
31727;DHT22;18308;53.072;8.820;2022-07-06T10:04:07;19.50;99.90
31727;DHT22;18308;53.072;8.820;2022-07-06T10:06:33;19.50;99.90
31727;DHT22;18308;53.072;8.820;2022-07-06T10:08:58;19.40;99.90
31727;DHT22;18308;53.072;8.820;2022-07-06T10:11:24;19.40;99.90
31727;DHT22;18308;53.072;8.820;2022-07-06T10:13:52;19.50;99.90
31727;DHT22;18308;53.072;8.820;2022-07-06T10:16:20;19.60;99.90
31727;DHT22;18308;53.072;8.820;2022-07-06T10:18:46;19.60;99.90
31727;DHT22;18308;53.072;8.820;2022-07-06T10:21:12;19.60;99.90
31727;DHT22;18308;53.072;8.820;2022-07-06T10:23:38;19.50;99.90
31727;DHT22;18308;53.072;8.820;2022-07-06T10:26:03;19.30;99.90
31727;DHT22;18308;53.072;8.820;2022-07-06T10:28:29;19.30;99.90
31727;DHT22;18308;53.072;8.820;2022-07-06T10:30:55;19.60;99.90
31727;DHT22;18308;53.072;8.820;2022-07-06T10:33:21;20.00;99.90
31727;DHT22;18308;53.072;8.820;2022-07-06T10:35:47;20.00;99.90
31727;DHT22;18308;53.072;8.820;2022-07-06T10:38:13;20.30;99.90
31727;DHT22;18308;53.072;8.820;2022-07-06T10:40:39;20.40;99.90
31727;DHT22;18308;53.072;8.820;2022-07-06T10:43:30;20.40;99.90
31727;DHT22;18308;53.072;8.820;2022-07-06T10:45:56;20.40;99.90
31727;DHT22;18308;53.072;8.820;2022-07-06T10:48:22;20.40;99.90
31727;DHT22;18308;53.072;8.820;2022-07-06T10:50:51;20.30;99.90
31727;DHT22;18308;53.072;8.820;2022-07-06T10:53:21;20.20;99.90
31727;DHT22;18308;53.072;8.820;2022-07-06T10:55:48;20.10;99.90
31727;DHT22;18308;53.072;8.820;2022-07-06T10:58:34;19.70;99.90
31727;DHT22;18308;53.072;8.820;2022-07-06T11:00:59;19.60;99.90
31727;DHT22;18308;53.072;8.820;2022-07-06T11:03:42;19.60;99.90
31727;DHT22;18308;53.072;8.820;2022-07-06T11:08:43;19.80;99.90
31727;DHT22;18308;53.072;8.820;2022-07-06T11:11:16;19.90;99.90
31727;DHT22;18308;53.072;8.820;2022-07-06T11:13:48;19.70;99.90
31727;DHT22;18308;53.072;8.820;2022-07-06T11:16:17;19.60;99.90
31727;DHT22;18308;53.072;8.820;2022-07-06T11:18:47;19.60;99.90
31727;DHT22;18308;53.072;8.820;2022-07-06T11:21:22;19.70;99.90
31727;DHT22;18308;53.072;8.820;2022-07-06T11:23:49;19.70;99.90
31727;DHT22;18308;53.072;8.820;2022-07-06T11:26:15;19.60;99.90
31727;DHT22;18308;53.072;8.820;2022-07-06T11:28:42;19.60;99.90
31727;DHT22;18308;53.072;8.820;2022-07-06T11:31:07;19.60;99.90
31727;DHT22;18308;53.072;8.820;2022-07-06T11:33:33;19.60;99.90
31727;DHT22;18308;53.072;8.820;2022-07-06T11:36:18;19.60;99.90
31727;DHT22;18308;53.072;8.820;2022-07-06T11:38:44;19.40;99.90
31727;DHT22;18308;53.072;8.820;2022-07-06T11:41:10;19.30;99.90
31727;DHT22;18308;53.072;8.820;2022-07-06T11:43:37;19.40;99.90
31727;DHT22;18308;53.072;8.820;2022-07-06T11:46:03;19.40;99.90
31727;DHT22;18308;53.072;8.820;2022-07-06T11:48:28;19.60;99.90
31727;DHT22;18308;53.072;8.820;2022-07-06T11:51:00;19.80;99.90
31727;DHT22;18308;53.072;8.820;2022-07-06T11:53:26;19.90;99.90
31727;DHT22;18308;53.072;8.820;2022-07-06T11:55:52;19.90;99.90
31727;DHT22;18308;53.072;8.820;2022-07-06T11:58:21;19.90;99.90
31727;DHT22;18308;53.072;8.820;2022-07-06T12:01:06;19.90;99.90
31727;DHT22;18308;53.072;8.820;2022-07-06T12:03:32;19.80;99.90
31727;DHT22;18308;53.072;8.820;2022-07-06T12:06:07;20.00;99.90
31727;DHT22;18308;53.072;8.820;2022-07-06T12:09:19;20.20;99.90
31727;DHT22;18308;53.072;8.820;2022-07-06T12:11:30;20.30;99.90
31727;DHT22;18308;53.072;8.820;2022-07-06T12:13:56;20.60;99.90
31727;DHT22;18308;53.072;8.820;2022-07-06T12:16:28;20.70;99.90
31727;DHT22;18308;53.072;8.820;2022-07-06T12:18:54;20.60;99.90
31727;DHT22;18308;53.072;8.820;2022-07-06T12:21:20;20.70;99.90
31727;DHT22;18308;53.072;8.820;2022-07-06T12:23:49;20.90;99.90
31727;DHT22;18308;53.072;8.820;2022-07-06T12:26:16;20.90;99.90
31727;DHT22;18308;53.072;8.820;2022-07-06T12:28:43;20.80;99.90
31727;DHT22;18308;53.072;8.820;2022-07-06T12:31:09;20.90;99.90
31727;DHT22;18308;53.072;8.820;2022-07-06T12:33:35;20.90;99.90
31727;DHT22;18308;53.072;8.820;2022-07-06T12:36:11;21.00;99.90
31727;DHT22;18308;53.072;8.820;2022-07-06T12:38:43;21.10;99.90
31727;DHT22;18308;53.072;8.820;2022-07-06T12:41:09;21.20;99.90
31727;DHT22;18308;53.072;8.820;2022-07-06T12:43:35;21.20;99.90
31727;DHT22;18308;53.072;8.820;2022-07-06T12:48:52;21.00;99.90
31727;DHT22;18308;53.072;8.820;2022-07-06T12:51:18;20.90;99.90
31727;DHT22;18308;53.072;8.820;2022-07-06T12:53:43;20.80;99.90
31727;DHT22;18308;53.072;8.820;2022-07-06T12:56:09;20.90;99.90
31727;DHT22;18308;53.072;8.820;2022-07-06T12:58:35;20.90;99.90
31727;DHT22;18308;53.072;8.820;2022-07-06T13:01:01;20.80;99.90
31727;DHT22;18308;53.072;8.820;2022-07-06T13:03:27;20.80;99.90
31727;DHT22;18308;53.072;8.820;2022-07-06T13:05:53;20.70;99.90
31727;DHT22;18308;53.072;8.820;2022-07-06T13:08:19;20.80;99.90
31727;DHT22;18308;53.072;8.820;2022-07-06T13:10:44;21.00;99.90
31727;DHT22;18308;53.072;8.820;2022-07-06T13:13:10;21.10;99.90
31727;DHT22;18308;53.072;8.820;2022-07-06T13:15:36;21.10;99.90
31727;DHT22;18308;53.072;8.820;2022-07-06T13:18:01;21.20;99.90
31727;DHT22;18308;53.072;8.820;2022-07-06T13:20:27;21.40;99.90
31727;DHT22;18308;53.072;8.820;2022-07-06T13:22:54;21.30;99.90
31727;DHT22;18308;53.072;8.820;2022-07-06T13:25:19;21.20;99.90
31727;DHT22;18308;53.072;8.820;2022-07-06T13:27:45;21.10;99.90
31727;DHT22;18308;53.072;8.820;2022-07-06T13:30:11;20.90;99.90
31727;DHT22;18308;53.072;8.820;2022-07-06T13:32:36;20.90;99.90
31727;DHT22;18308;53.072;8.820;2022-07-06T13:35:02;20.60;99.90
31727;DHT22;18308;53.072;8.820;2022-07-06T13:37:28;20.60;99.90
31727;DHT22;18308;53.072;8.820;2022-07-06T13:39:54;20.60;99.90
31727;DHT22;18308;53.072;8.820;2022-07-06T13:42:19;20.50;99.90
31727;DHT22;18308;53.072;8.820;2022-07-06T13:44:45;20.50;99.90
31727;DHT22;18308;53.072;8.820;2022-07-06T13:47:11;20.50;99.90
31727;DHT22;18308;53.072;8.820;2022-07-06T13:49:36;20.30;99.90
31727;DHT22;18308;53.072;8.820;2022-07-06T13:52:02;20.30;99.90
31727;DHT22;18308;53.072;8.820;2022-07-06T13:54:29;20.20;99.90
31727;DHT22;18308;53.072;8.820;2022-07-06T13:56:54;20.30;99.90
31727;DHT22;18308;53.072;8.820;2022-07-06T13:59:20;20.50;99.90
31727;DHT22;18308;53.072;8.820;2022-07-06T14:01:45;20.60;99.90
31727;DHT22;18308;53.072;8.820;2022-07-06T14:04:11;20.70;99.90
31727;DHT22;18308;53.072;8.820;2022-07-06T14:06:37;20.70;99.90
31727;DHT22;18308;53.072;8.820;2022-07-06T14:09:02;20.70;99.90
31727;DHT22;18308;53.072;8.820;2022-07-06T14:11:28;20.70;99.90
31727;DHT22;18308;53.072;8.820;2022-07-06T14:13:54;20.70;99.90
31727;DHT22;18308;53.072;8.820;2022-07-06T14:16:19;20.90;99.90
31727;DHT22;18308;53.072;8.820;2022-07-06T14:18:45;20.90;99.90
31727;DHT22;18308;53.072;8.820;2022-07-06T14:21:10;20.90;99.80
31727;DHT22;18308;53.072;8.820;2022-07-06T14:23:36;20.90;99.10
31727;DHT22;18308;53.072;8.820;2022-07-06T14:26:02;21.00;99.30
31727;DHT22;18308;53.072;8.820;2022-07-06T14:28:27;21.30;99.30
31727;DHT22;18308;53.072;8.820;2022-07-06T14:30:53;21.40;98.60
31727;DHT22;18308;53.072;8.820;2022-07-06T14:33:18;21.40;98.20
31727;DHT22;18308;53.072;8.820;2022-07-06T14:35:45;21.40;97.90
31727;DHT22;18308;53.072;8.820;2022-07-06T14:38:13;21.50;97.50
31727;DHT22;18308;53.072;8.820;2022-07-06T14:40:39;21.50;97.40
31727;DHT22;18308;53.072;8.820;2022-07-06T14:43:05;21.50;97.30
31727;DHT22;18308;53.072;8.820;2022-07-06T14:45:31;21.40;97.30
31727;DHT22;18308;53.072;8.820;2022-07-06T14:47:57;21.30;97.40
31727;DHT22;18308;53.072;8.820;2022-07-06T14:50:22;21.40;97.40
31727;DHT22;18308;53.072;8.820;2022-07-06T14:52:51;21.50;97.60
31727;DHT22;18308;53.072;8.820;2022-07-06T14:55:17;21.60;97.70
31727;DHT22;18308;53.072;8.820;2022-07-06T14:57:42;21.50;98.00
31727;DHT22;18308;53.072;8.820;2022-07-06T15:00:08;21.60;98.10
31727;DHT22;18308;53.072;8.820;2022-07-06T15:02:34;21.60;98.00
31727;DHT22;18308;53.072;8.820;2022-07-06T15:05:00;21.50;98.00
31727;DHT22;18308;53.072;8.820;2022-07-06T15:07:26;21.40;98.30
31727;DHT22;18308;53.072;8.820;2022-07-06T15:09:51;21.40;98.50
31727;DHT22;18308;53.072;8.820;2022-07-06T15:12:17;21.40;98.40
31727;DHT22;18308;53.072;8.820;2022-07-06T15:14:42;21.30;98.60
31727;DHT22;18308;53.072;8.820;2022-07-06T15:17:08;21.30;98.90
31727;DHT22;18308;53.072;8.820;2022-07-06T15:19:34;21.30;98.70
31727;DHT22;18308;53.072;8.820;2022-07-06T15:21:59;21.30;98.90
31727;DHT22;18308;53.072;8.820;2022-07-06T15:24:26;21.30;98.70
31727;DHT22;18308;53.072;8.820;2022-07-06T15:26:52;21.20;98.90
31727;DHT22;18308;53.072;8.820;2022-07-06T15:29:21;21.10;99.40
31727;DHT22;18308;53.072;8.820;2022-07-06T15:31:48;20.90;99.80